CST,Max TemperatureF,Mean TemperatureF,Min TemperatureF,Max Dew PointF,MeanDew PointF,Min DewpointF,Max Humidity, Mean Humidity, Min Humidity, Max Sea Level PressureIn, Mean Sea Level PressureIn, Min Sea Level PressureIn, Max VisibilityMiles, Mean VisibilityMiles, Min VisibilityMiles, Max Wind SpeedMPH, Mean Wind SpeedMPH, Max Gust SpeedMPH,PrecipitationIn, CloudCover, Events, WindDirDegrees
2014-1-1,12,8,3,9,0,-9,85,70,56,30.34,30.30,30.24,10,9,2,14,10,17,0.00,8,Snow,359
2014-1-2,15,8,-2,9,1,-9,85,72,56,30.40,30.28,30.21,10,6,1,16,11,18,0.00,4,Snow,337
2014-1-3,19,6,-7,10,-2,-13,84,71,44,30.40,30.17,29.81,10,9,5,23,7,32,0.00,1,,209
2014-1-4,28,24,19,25,16,10,86,71,63,30.05,29.84,29.70,10,9,1,22,15,29,0.00,5,Snow,240
2014-1-5,19,8,-4,9,-2,-17,68,61,51,30.14,30.06,30.00,10,10,5,22,14,30,0.00,7,,333
2014-1-6,-5,-10,-14,-17,-22,-27,65,59,45,30.15,30.07,29.99,10,8,2,25,18,32,0.00,2,,280
2014-1-7,1,-6,-14,-9,-18,-24,71,62,47,30.28,30.19,30.13,10,10,10,17,13,23,0.00,0,,250
2014-1-8,8,0,-7,-6,-9,-13,85,71,48,30.50,30.38,30.27,10,10,10,9,2,,0.00,0,,264
2014-1-9,24,6,-11,21,2,-17,93,79,63,30.51,30.36,30.12,10,8,5,10,2,,0.00,3,,174
2014-1-10,37,30,24,36,27,21,100,91,86,30.12,29.86,29.47,10,4,0,14,6,,0.03,8,Fog-Rain,181
2014-1-11,37,34,30,36,30,25,100,86,75,29.72,29.50,29.39,10,7,1,18,10,31,0.00,8,Rain,261
2014-1-12,41,34,26,32,26,23,86,78,56,29.78,29.68,29.55,10,10,7,18,12,26,0.00,2,,217
2014-1-13,41,34,26,32,28,19,87,79,65,29.73,29.59,29.50,10,10,10,15,8,22,0.00,4,,242
2014-1-14,33,26,19,30,20,12,87,81,74,29.83,29.67,29.50,10,6,1,26,9,39,0.00,6,Snow,226
2014-1-15,19,14,10,12,8,3,86,75,67,30.03,29.92,29.75,10,9,5,18,13,24,0.00,4,Snow,259
2014-1-16,32,24,17,28,17,10,87,75,59,29.71,29.57,29.42,10,8,1,21,13,28,0.00,7,Snow,224
2014-1-17,19,14,8,14,7,1,80,73,67,29.91,29.79,29.66,10,9,3,17,12,22,0.00,4,Snow,273
2014-1-18,21,14,8,16,9,3,93,81,67,29.89,29.85,29.79,10,9,2,8,5,,0.00,3,Snow,248
2014-1-19,32,21,10,25,16,7,86,76,60,29.79,29.63,29.49,10,10,10,17,10,25,0.00,4,,249
2014-1-20,32,19,5,27,11,-8,93,72,52,30.17,29.89,29.58,10,8,3,22,11,29,0.00,8,Snow,12
2014-1-21,6,2,-2,-8,-9,-11,78,63,52,30.31,30.23,30.16,10,10,7,20,12,29,0.00,2,,324
2014-1-22,12,6,0,3,-7,-13,78,64,55,30.15,30.03,29.84,10,8,2,21,7,25,0.00,5,Snow,249
2014-1-23,8,3,-4,-4,-9,-13,72,61,51,30.53,30.36,30.13,10,9,4,20,15,29,0.00,1,,285
2014-1-24,28,12,-5,25,2,-15,86,69,44,30.43,29.90,29.36,10,8,2,28,15,40,0.00,5,Snow,229
2014-1-25,30,18,5,27,4,-11,86,60,44,29.82,29.57,29.35,10,8,2,29,14,39,0.00,3,Snow,287
2014-1-26,21,13,5,16,3,-8,86,73,52,29.75,29.54,29.33,10,5,0,30,9,40,0.00,8,Snow,229
2014-1-27,5,-1,-7,-4,-14,-20,72,58,50,30.36,30.13,29.77,10,8,3,23,17,34,0.00,0,Snow,285
2014-1-28,1,-6,-13,-13,-17,-20,70,58,47,30.35,30.26,30.14,10,10,10,17,12,25,0.00,0,,254
2014-1-29,23,12,0,5,-4,-13,66,56,38,30.13,30.04,29.88,10,10,10,21,13,30,0.00,0,,232
2014-1-30,30,24,19,27,13,5,86,61,46,29.89,29.76,29.58,10,9,0,22,17,31,0.00,4,Snow,224
2014-1-31,19,14,8,12,3,-2,74,66,53,30.12,30.06,29.91,10,10,10,21,8,17,0.00,0,,285